Time;durP1;ratioP1;P1;durP2;ratioP2;P2;SDS_P1;SDS_P2;PMS_P1;PMS_P2;Temp;Humidity;BMP_temperature;BMP_pressure;BME280_temperature;BME280_humidity;BME280_pressure;Samples;Min_cycle;Max_cycle;Signal;HPM_P1;HPM_P2
2022/03/21 01:06:48;;;;;;;17.17;9.70;;;;;;;9.60;34.12;97528.78;5017550;27;20593;-81
2022/03/21 01:09:17;;;;;;;15.00;9.80;;;;;;;-141.59;100.00;61776.25;5008297;28;20200;-79
2022/03/21 01:11:44;;;;;;;13.10;9.37;;;;;;;;;;5031594;27;20203;-81
2022/03/21 01:14:11;;;;;;;13.93;9.87;;;;;;;9.53;34.04;97533.28;5005245;28;20192;-82
2022/03/21 01:16:38;;;;;;;12.83;9.17;;;;;;;9.60;33.78;97518.00;5016905;28;20220;-81
2022/03/21 01:19:19;;;;;;;14.67;10.13;;;;;;;9.53;34.20;97519.78;5135969;27;20567;-80
2022/03/21 01:21:46;;;;;;;16.37;10.10;;;;;;;9.58;34.13;97527.31;5105086;27;20303;-78
2022/03/21 01:24:13;;;;;;;15.67;10.50;;;;;;;9.58;34.13;97527.31;5099320;27;20191;-81
2022/03/21 01:26:40;;;;;;;14.00;10.53;;;;;;;9.54;34.04;97526.84;5125432;27;20241;-81
2022/03/21 01:29:07;;;;;;;14.17;10.00;;;;;;;9.52;34.36;97528.94;5124443;27;20286;-79
2022/03/21 01:31:34;;;;;;;20.63;10.70;;;;;;;9.48;34.31;97506.06;5115630;27;20266;-80
2022/03/21 01:34:01;;;;;;;15.27;10.70;;;;;;;9.49;34.38;97507.75;5119473;27;20199;-82
2022/03/21 01:36:30;;;;;;;15.20;10.40;;;;;;;9.47;34.17;97515.19;5111948;28;20266;-78
2022/03/21 01:38:57;;;;;;;14.40;10.47;;;;;;;9.49;34.16;97513.13;5101476;28;20318;-81
2022/03/21 01:41:25;;;;;;;14.47;10.47;;;;;;;9.46;34.12;97516.22;5107103;27;20205;-77
2022/03/21 01:43:59;;;;;;;15.50;10.13;;;;;;;9.49;34.25;97510.44;5102143;27;20294;-81
2022/03/21 01:46:28;;;;;;;14.13;10.73;;;;;;;9.42;34.44;97498.78;5110005;27;20248;-81
2022/03/21 01:48:55;;;;;;;16.30;10.93;;;;;;;9.31;34.81;97510.06;5103752;28;20303;-80
2022/03/21 01:51:23;;;;;;;13.43;9.80;;;;;;;9.37;34.75;97506.59;5107301;28;20200;-80
2022/03/21 01:56:38;;;;;;;16.10;10.80;;;;;;;9.32;34.85;97514.44;5105757;28;20352;-81
2022/03/21 01:59:07;;;;;;;16.70;9.43;;;;;;;9.29;34.90;97517.50;5131245;27;20214;-81
2022/03/21 02:01:34;;;;;;;15.53;10.40;;;;;;;9.30;34.78;97498.47;5115286;27;20203;-82
2022/03/21 02:04:01;;;;;;;14.77;10.20;;;;;;;9.34;34.80;97498.91;5104728;27;20202;-81
2022/03/21 02:06:30;;;;;;;14.57;9.73;;;;;;;9.18;35.07;97488.41;5108315;28;20203;-81
2022/03/21 02:09:00;;;;;;;15.07;10.17;;;;;;;9.19;34.65;97488.19;5104018;27;20245;-80
2022/03/21 02:11:29;;;;;;;15.20;9.77;;;;;;;9.20;35.45;97499.81;5104508;28;20208;-79
2022/03/21 02:14:00;;;;;;;16.50;11.07;;;;;;;9.18;35.28;97500.03;5100250;28;20286;-81
2022/03/21 02:16:28;;;;;;;15.90;10.23;;;;;;;9.23;35.08;97496.72;5107716;27;20234;-80
2022/03/21 02:18:56;;;;;;;15.90;10.10;;;;;;;9.22;35.23;97512.06;5090603;28;20232;-79
2022/03/21 02:21:28;;;;;;;14.07;10.00;;;;;;;9.20;35.25;97491.72;5096048;28;20206;-81
2022/03/21 02:24:03;;;;;;;18.17;10.70;;;;;;;9.19;35.08;97495.44;5087663;28;20224;-80
2022/03/21 02:26:33;;;;;;;15.63;9.97;;;;;;;9.12;35.42;97490.00;5093582;28;20299;-77
2022/03/21 02:29:02;;;;;;;14.40;10.13;;;;;;;8.98;36.04;97499.81;5091180;28;20201;-80
2022/03/21 02:31:31;;;;;;;17.70;10.97;;;;;;;9.06;35.37;97497.00;5080613;27;20290;-80
2022/03/21 02:33:59;;;;;;;13.90;10.20;;;;;;;9.09;35.23;97502.00;5090565;28;20211;-79
2022/03/21 02:36:27;;;;;;;13.77;10.17;;;;;;;9.06;35.12;97491.59;5109367;27;20203;-81
2022/03/21 02:38:56;;;;;;;16.40;10.67;;;;;;;9.06;35.18;97502.38;5088957;28;20220;-80
2022/03/21 02:41:23;;;;;;;15.30;10.47;;;;;;;9.03;35.74;97485.75;5105363;28;20290;-81
2022/03/21 02:43:53;;;;;;;13.27;10.20;;;;;;;8.94;36.04;97501.22;5085226;28;20212;-81
2022/03/21 02:46:20;;;;;;;16.70;10.07;;;;;;;8.97;35.47;97492.75;5081357;27;20266;-81
2022/03/21 02:48:48;;;;;;;17.87;10.77;;;;;;;8.89;36.40;97494.75;5088182;28;20284;-81
2022/03/21 02:51:16;;;;;;;15.97;10.63;;;;;;;8.91;35.83;97484.63;5101130;27;20215;-81
2022/03/21 02:53:45;;;;;;;15.73;10.67;;;;;;;8.60;37.23;97492.97;5088183;28;20299;-81
2022/03/21 02:56:12;;;;;;;14.67;10.03;;;;;;;8.89;35.94;97495.59;5084413;28;20220;-81
2022/03/21 02:58:39;;;;;;;13.93;10.07;;;;;;;8.75;36.78;97493.78;5082222;28;20221;-81
2022/03/21 03:01:09;;;;;;;14.87;10.43;;;;;;;8.84;36.01;97491.81;5082003;28;20208;-79
2022/03/21 03:03:36;;;;;;;14.63;10.37;;;;;;;8.93;35.77;97496.06;5084774;28;20219;-79
2022/03/21 03:06:03;;;;;;;14.57;10.13;;;;;;;8.78;36.31;97490.69;5083823;27;20245;-80
2022/03/21 03:08:31;;;;;;;13.57;9.90;;;;;;;8.77;36.32;97497.09;5089962;28;20219;-80
2022/03/21 03:10:58;;;;;;;17.07;10.30;;;;;;;8.82;36.42;97483.09;5085039;28;20205;-79
2022/03/21 03:13:25;;;;;;;15.77;9.60;;;;;;;8.64;36.90;97480.81;5080384;28;20199;-79
2022/03/21 03:15:53;;;;;;;16.73;9.83;;;;;;;8.54;37.58;97496.44;5095237;28;20244;-80
2022/03/21 03:18:21;;;;;;;14.37;10.03;;;;;;;8.69;36.80;97483.75;5087836;28;20232;-80
2022/03/21 03:20:50;;;;;;;12.97;9.80;;;;;;;8.51;37.61;97486.88;5103215;27;20204;-80
2022/03/21 03:23:19;;;;;;;15.90;10.97;;;;;;;8.67;36.77;97485.84;5072855;28;20211;-80
2022/03/21 03:25:46;;;;;;;14.57;10.00;;;;;;;8.33;38.23;97490.00;5094013;27;20205;-80
2022/03/21 03:28:14;;;;;;;15.10;8.60;;;;;;;8.02;40.24;97501.94;5083886;28;20201;-79
2022/03/21 03:30:42;;;;;;;14.67;9.33;;;;;;;7.97;39.87;97494.44;5089608;28;20284;-79
2022/03/21 03:33:09;;;;;;;16.93;9.80;;;;;;;8.26;38.12;97486.34;5079985;28;20209;-80
2022/03/21 03:35:38;;;;;;;14.27;10.00;;;;;;;8.39;38.23;97501.03;5082001;28;20244;-79
2022/03/21 03:38:05;;;;;;;12.90;9.43;;;;;;;8.20;38.88;97489.78;5093498;28;20234;-81
2022/03/21 03:40:32;;;;;;;14.53;9.27;;;;;;;8.11;38.82;97507.03;5075820;28;20296;-79
2022/03/21 03:42:59;;;;;;;12.90;8.90;;;;;;;8.03;39.64;97514.38;5073894;28;20210;-80
2022/03/21 03:45:26;;;;;;;10.20;6.70;;;;;;;7.76;42.13;97513.16;5111836;27;20246;-79
2022/03/21 03:47:53;;;;;;;12.83;8.67;;;;;;;7.91;40.23;97516.72;5090786;28;20212;-81
2022/03/21 03:50:20;;;;;;;14.90;9.47;;;;;;;8.13;39.16;97523.00;5082392;28;20200;-81
2022/03/21 03:52:49;;;;;;;16.30;10.03;;;;;;;8.40;38.10;97527.75;5076857;28;20283;-80
2022/03/21 03:55:18;;;;;;;14.03;9.07;;;;;;;8.31;38.14;97518.13;5076235;28;20204;-81
2022/03/21 03:57:45;;;;;;;10.33;7.13;;;;;;;7.94;40.91;97524.41;5093045;27;20269;-80
2022/03/21 04:00:14;;;;;;;10.50;7.30;;;;;;;7.85;41.48;97525.50;5104357;27;20220;-81
2022/03/21 04:05:27;;;;;;;12.20;7.10;;;;;;;7.52;43.06;97515.09;5079554;28;20209;-81
2022/03/21 04:07:56;;;;;;;11.03;7.87;;;;;;;7.67;41.64;97520.47;5091246;28;20199;-82
2022/03/21 04:10:24;;;;;;;11.33;8.10;;;;;;;7.70;41.45;97528.19;5085816;28;20212;-79
2022/03/21 04:12:52;;;;;;;15.13;8.40;;;;;;;7.69;41.04;97525.66;5089306;28;20200;-81
2022/03/21 04:15:20;;;;;;;13.40;8.43;;;;;;;7.68;41.33;97521.31;5088094;28;20224;-81
2022/03/21 04:17:47;;;;;;;16.20;8.90;;;;;;;8.05;38.66;97523.94;5064696;28;20222;-81
2022/03/21 04:20:15;;;;;;;12.93;9.07;;;;;;;8.09;38.93;97519.84;5064519;28;20220;-79
2022/03/21 04:22:42;;;;;;;11.83;8.50;;;;;;;7.85;40.82;97526.34;5059301;28;20206;-81
2022/03/21 04:25:13;;;;;;;13.40;8.60;;;;;;;7.73;40.61;97524.31;5054131;28;20230;-79
2022/03/21 04:27:40;;;;;;;12.77;8.40;;;;;;;7.71;40.79;97515.56;5071400;28;20201;-81
2022/03/21 04:30:09;;;;;;;11.03;8.10;;;;;;;7.58;41.99;97522.41;5066081;28;20205;-81
2022/03/21 04:32:36;;;;;;;10.97;8.57;;;;;;;7.55;41.10;97512.03;5056621;28;20202;-81
2022/03/21 04:35:04;;;;;;;12.53;8.63;;;;;;;7.82;40.39;97524.03;5073244;28;20225;-78
2022/03/21 04:37:31;;;;;;;14.10;8.77;;;;;;;7.83;40.20;97508.72;5055670;28;20248;-81
2022/03/21 04:39:58;;;;;;;14.02;9.90;;;;;;;7.81;40.15;97506.22;5068482;28;20429;-82
2022/03/21 04:42:26;;;;;;;12.70;9.93;;;;;;;7.76;40.45;97510.47;5063337;28;20454;-81
2022/03/21 04:44:53;;;;;;;12.00;9.38;;;;;;;7.78;40.26;97519.19;5061991;28;20495;-81
2022/03/21 04:47:22;;;;;;;13.43;9.03;;;;;;;7.79;40.04;97510.13;5064489;28;20281;-81
2022/03/21 04:49:49;;;;;;;12.77;8.80;;;;;;;7.66;41.14;97504.53;5049307;28;20205;-81
2022/03/21 04:52:16;;;;;;;15.73;8.40;;;;;;;7.44;41.93;97504.41;5053785;28;20201;-80
2022/03/21 04:54:43;;;;;;;11.40;8.33;;;;;;;7.43;42.00;97518.03;5053458;28;20243;-81
2022/03/21 04:57:12;;;;;;;13.73;9.27;;;;;;;7.44;41.81;97522.38;5061915;28;20204;-80
2022/03/21 04:59:41;;;;;;;12.63;8.70;;;;;;;7.46;41.91;97521.19;5062491;28;20241;-81
2022/03/21 05:02:08;;;;;;;10.03;7.83;;;;;;;7.46;42.06;97525.72;5055693;28;20292;-81
2022/03/21 05:04:35;;;;;;;14.20;8.95;;;;;;;7.51;41.88;97529.53;5052621;28;20433;-81
2022/03/21 05:07:03;;;;;;;13.05;8.05;;;;;;;7.52;42.67;97531.22;5060638;28;20417;-82
2022/03/21 05:09:30;;;;;;;12.17;7.67;;;;;;;7.38;43.03;97529.34;5059626;28;20214;-81
2022/03/21 05:11:57;;;;;;;14.10;8.40;;;;;;;7.37;43.00;97532.19;5061722;28;20201;-81
2022/03/21 05:14:24;;;;;;;15.13;9.13;;;;;;;7.49;41.90;97536.94;5065923;28;20261;-81
2022/03/21 05:16:52;;;;;;;11.70;7.93;;;;;;;7.41;41.72;97526.25;5055667;28;20217;-78
2022/03/21 05:19:20;;;;;;;10.67;7.60;;;;;;;7.44;42.27;97542.03;5096620;28;20305;-81
2022/03/21 05:21:47;;;;;;;12.10;8.33;;;;;;;7.51;41.76;97539.44;5079688;28;20219;-81
2022/03/21 05:32:29;;;;;;;10.57;6.97;;;;;;;7.40;43.16;97551.47;5080712;28;20223;-80
2022/03/21 05:37:40;;;;;;;11.23;7.30;;;;;;;7.29;43.67;97559.13;5060334;28;20255;-81
2022/03/21 05:42:52;;;;;;;9.53;7.13;;;;;;;7.28;43.92;97552.09;5086465;28;20215;-82
2022/03/21 05:45:20;;;;;;;12.83;7.40;;;;;;;7.38;43.33;97555.38;5085800;28;20210;-81
2022/03/21 05:50:38;;;;;;;13.63;8.00;;;;;;;7.41;43.28;97560.34;5097586;28;20211;-81
2022/03/21 05:53:06;;;;;;;10.73;6.97;;;;;;;7.32;44.64;97564.97;5083594;28;20219;-81
2022/03/21 05:55:33;;;;;;;12.73;6.73;;;;;;;7.38;44.46;97566.94;5082621;28;20265;-81
2022/03/21 05:58:00;;;;;;;10.50;7.13;;;;;;;7.49;42.58;97571.88;5080736;28;20307;-81
2022/03/21 06:00:28;;;;;;;12.87;7.57;;;;;;;7.50;42.37;97565.47;5082369;28;20247;-81
2022/03/21 06:02:56;;;;;;;11.70;7.43;;;;;;;7.46;42.91;97563.34;5078045;28;20215;-80
2022/03/21 06:05:24;;;;;;;11.87;7.37;;;;;;;7.42;43.87;97564.72;5083758;28;20216;-81
2022/03/21 06:07:52;;;;;;;11.13;7.03;;;;;;;7.43;44.32;97571.78;5079199;28;20300;-81
2022/03/21 06:10:19;;;;;;;10.80;7.33;;;;;;;7.48;43.49;97572.91;5087860;28;20213;-81
2022/03/21 06:12:46;;;;;;;10.43;6.70;;;;;;;7.40;44.19;97570.28;5085768;28;20208;-81
2022/03/21 06:15:13;;;;;;;10.90;7.17;;;;;;;7.39;44.69;97560.56;5081014;28;20236;-81
2022/03/21 06:17:42;;;;;;;11.73;7.00;;;;;;;7.47;44.40;97567.72;5097910;28;20228;-80
2022/03/21 06:20:13;;;;;;;11.97;7.60;;;;;;;7.73;41.75;97562.78;5081524;28;20232;-81
2022/03/21 06:22:41;;;;;;;14.40;7.57;;;;;;;7.61;43.08;97558.84;5088491;28;20216;-81
2022/03/21 06:25:10;;;;;;;11.50;6.90;;;;;;;7.54;43.97;97560.59;5104733;28;20307;-81
2022/03/21 06:27:39;;;;;;;11.50;8.60;;;;;;;7.67;42.20;97578.78;5091445;28;20215;-80
2022/03/21 06:30:08;;;;;;;12.70;7.60;;;;;;;7.58;42.70;97569.94;5086671;28;20235;-81
2022/03/21 06:32:35;;;;;;;13.10;8.40;;;;;;;7.69;42.19;97584.81;5092615;28;20197;-81
2022/03/21 06:35:03;;;;;;;12.10;7.80;;;;;;;7.77;41.96;97588.25;5086761;28;20216;-81
2022/03/21 06:37:32;;;;;;;10.60;7.27;;;;;;;7.87;41.48;97590.69;5083692;28;20268;-82
2022/03/21 06:39:59;;;;;;;10.40;7.60;;;;;;;7.84;41.51;97585.69;5077720;28;20250;-82
2022/03/21 06:42:26;;;;;;;11.80;7.37;;;;;;;7.92;41.82;97588.28;5095293;28;20193;-81
2022/03/21 06:44:54;;;;;;;11.67;7.93;;;;;;;7.96;40.95;97589.59;5083601;28;20209;-81
2022/03/21 06:47:21;;;;;;;11.97;7.80;;;;;;;7.95;41.71;97582.56;5093652;28;20230;-82
2022/03/21 06:49:49;;;;;;;12.00;8.00;;;;;;;8.14;40.39;97587.41;5074640;28;20209;-82
2022/03/21 06:52:18;;;;;;;16.13;8.40;;;;;;;8.09;41.00;97589.78;5093520;28;20232;-81
2022/03/21 06:54:48;;;;;;;13.30;8.57;;;;;;;8.29;40.50;97584.69;5094863;28;20201;-83
2022/03/21 06:57:17;;;;;;;13.57;9.23;;;;;;;8.44;39.15;97590.09;5089327;28;20211;-83
2022/03/21 06:59:45;;;;;;;16.17;8.67;;;;;;;8.54;38.99;97588.81;5078343;28;20220;-81
2022/03/21 07:02:12;;;;;;;13.20;9.00;;;;;;;8.49;39.60;97579.63;5078397;28;20303;-81
2022/03/21 07:04:39;;;;;;;12.73;8.23;;;;;;;8.55;39.77;97584.25;5094902;28;20209;-81
2022/03/21 07:07:06;;;;;;;14.63;9.33;;;;;;;8.55;39.41;97579.72;5080410;28;20308;-82
2022/03/21 07:09:34;;;;;;;16.17;9.17;;;;;;;8.62;39.30;97582.47;5089889;28;20241;-80
2022/03/21 07:12:02;;;;;;;13.20;8.67;;;;;;;8.54;39.43;97587.97;5089902;27;20203;-81
2022/03/21 07:14:29;;;;;;;14.70;8.73;;;;;;;8.54;39.72;97579.88;5078996;28;20239;-81
2022/03/21 07:16:56;;;;;;;15.07;7.80;;;;;;;8.73;39.19;97593.63;5078812;28;20228;-80
2022/03/21 07:19:23;;;;;;;12.80;7.93;;;;;;;8.59;41.25;97581.00;5075749;28;20221;-80
2022/03/21 07:21:51;;;;;;;13.07;8.10;;;;;;;8.72;40.07;97585.72;5094337;28;20185;-81
2022/03/21 07:24:18;;;;;;;11.63;8.33;;;;;;;8.83;38.27;97574.47;5076149;28;20193;-81
2022/03/21 07:26:45;;;;;;;12.90;9.37;;;;;;;9.04;37.15;97577.19;5082757;27;20240;-81
2022/03/21 07:29:13;;;;;;;17.20;8.60;;;;;;;9.04;38.09;97587.97;5094586;28;20200;-82
2022/03/21 07:31:40;;;;;;;14.03;8.87;;;;;;;8.91;38.47;97585.13;5083209;27;20249;-81
2022/03/21 07:34:08;;;;;;;13.57;8.60;;;;;;;9.11;36.83;97577.25;5090972;28;20329;-81
2022/03/21 07:36:35;;;;;;;14.30;8.40;;;;;;;9.29;35.83;97574.13;5094802;28;20208;-80
2022/03/21 07:39:04;;;;;;;15.33;9.10;;;;;;;9.17;37.07;97572.97;5087503;27;20225;-82
2022/03/21 07:41:31;;;;;;;12.07;8.70;;;;;;;9.19;36.97;97577.13;5090367;28;20205;-80
2022/03/21 07:43:59;;;;;;;16.93;8.93;;;;;;;9.17;37.07;97567.59;5086072;28;20478;-82
2022/03/21 07:49:13;;;;;;;16.53;8.90;;;;;;;9.24;37.06;97581.94;5086706;27;20204;-81
2022/03/21 07:51:43;;;;;;;12.57;9.10;;;;;;;9.50;35.58;97576.81;5088706;27;20220;-82
2022/03/21 07:54:11;;;;;;;15.63;8.30;;;;;;;9.59;35.46;97577.53;5086194;28;20222;-82
2022/03/21 07:56:39;;;;;;;14.27;9.13;;;;;;;9.57;35.44;97566.94;5070541;28;20289;-81
2022/03/21 07:59:06;;;;;;;15.40;8.40;;;;;;;9.73;34.40;97566.63;5093069;28;20208;-81
2022/03/21 08:01:35;;;;;;;12.77;8.53;;;;;;;9.71;34.94;97567.84;5079061;28;20211;-79
2022/03/21 08:04:04;;;;;;;12.63;8.63;;;;;;;9.72;34.93;97573.06;5075645;28;20255;-79
2022/03/21 08:06:31;;;;;;;16.10;8.70;;;;;;;9.78;34.70;97556.09;5076377;28;20212;-81
2022/03/21 08:08:58;;;;;;;12.90;7.93;;;;;;;9.87;34.65;97563.00;5087927;28;20257;-80
2022/03/21 08:11:25;;;;;;;15.20;9.20;;;;;;;9.81;34.47;97555.72;5077866;28;20200;-81
2022/03/21 08:13:53;;;;;;;13.63;8.70;;;;;;;9.90;34.65;97560.94;5086139;28;20227;-81
2022/03/21 08:16:21;;;;;;;12.20;8.10;;;;;;;9.92;34.77;97558.91;5114336;27;20227;-81
2022/03/21 08:18:51;;;;;;;12.43;8.20;;;;;;;10.00;34.55;97561.44;5079956;28;20243;-82
2022/03/21 08:21:20;;;;;;;12.67;7.97;;;;;;;10.10;34.24;97553.84;5081677;28;20228;-81
2022/03/21 08:23:49;;;;;;;11.67;8.20;;;;;;;10.16;34.19;97555.75;5103359;28;20265;-80
2022/03/21 08:26:17;;;;;;;16.47;8.27;;;;;;;10.27;34.12;97555.22;5088828;28;20208;-81
2022/03/21 08:28:45;;;;;;;14.10;8.40;;;;;;;10.46;34.22;97551.78;5077039;28;20208;-82
2022/03/21 08:31:14;;;;;;;11.80;7.40;;;;;;;10.63;33.80;97554.16;5084284;27;20216;-82
2022/03/21 08:33:42;;;;;;;12.07;7.93;;;;;;;10.77;33.46;97540.50;5090123;28;20197;-81
2022/03/21 08:36:12;;;;;;;16.77;7.83;;;;;;;10.90;32.92;97539.69;5090056;28;20209;-80
2022/03/21 08:38:40;;;;;;;12.70;6.87;;;;;;;11.04;33.36;97536.00;5090464;28;20273;-81
2022/03/21 08:41:07;;;;;;;12.57;7.83;;;;;;;11.17;32.88;97529.78;5107368;27;20226;-82
2022/03/21 08:43:34;;;;;;;11.33;7.13;;;;;;;11.23;32.22;97539.78;5090878;28;20271;-81
2022/03/21 08:46:01;;;;;;;14.43;7.03;;;;;;;11.33;32.12;97530.22;5081313;28;20296;-81
2022/03/21 08:51:15;;;;;;;12.17;7.73;;;;;;;11.49;32.32;97529.00;5095474;28;20215;-81
2022/03/21 08:53:42;;;;;;;10.73;7.10;;;;;;;11.59;31.92;97526.72;5080207;28;20207;-82
2022/03/21 08:56:09;;;;;;;10.33;6.87;;;;;;;11.86;32.28;97518.63;5087570;28;20307;-81
2022/03/21 08:58:37;;;;;;;9.03;7.07;;;;;;;11.83;31.59;97525.28;5083133;28;20284;-81
2022/03/21 09:01:04;;;;;;;8.80;6.30;;;;;;;11.90;31.87;97503.63;5091162;28;20224;-81
2022/03/21 09:03:31;;;;;;;13.60;7.00;;;;;;;12.03;31.28;97515.25;5077829;28;20211;-81
2022/03/21 09:05:58;;;;;;;12.67;7.17;;;;;;;12.07;30.97;97516.53;5089428;27;20232;-81
2022/03/21 09:08:27;;;;;;;14.53;6.77;;;;;;;12.09;30.82;97503.59;5085206;28;20204;-82
2022/03/21 09:10:55;;;;;;;11.13;7.40;;;;;;;12.24;30.76;97505.22;5088340;28;20267;-82
2022/03/21 09:13:23;;;;;;;9.97;7.17;;;;;;;12.44;31.48;97495.97;5087791;28;20204;-82
2022/03/21 09:15:51;;;;;;;12.60;7.00;;;;;;;12.50;30.51;97499.72;5084642;28;20234;-81
2022/03/21 09:18:18;;;;;;;11.40;7.00;;;;;;;12.48;29.78;97488.28;5085569;28;20240;-81
2022/03/21 09:20:45;;;;;;;8.80;6.67;;;;;;;12.64;29.83;97493.19;5088293;28;20226;-81
2022/03/21 09:23:12;;;;;;;9.13;6.53;;;;;;;12.81;29.93;97485.41;5088985;28;20208;-81
2022/03/21 09:25:41;;;;;;;14.47;7.03;;;;;;;13.00;30.11;97486.34;5076242;28;20201;-82
2022/03/21 09:28:08;;;;;;;11.57;7.00;;;;;;;12.94;29.83;97481.78;5090343;28;20286;-82
2022/03/21 09:30:37;;;;;;;10.87;6.60;;;;;;;12.93;29.67;97477.44;5085152;28;20204;-81
2022/03/21 09:33:04;;;;;;;10.00;6.63;;;;;;;12.94;29.61;97465.50;5085088;28;20252;-81
2022/03/21 09:35:32;;;;;;;11.77;6.47;;;;;;;13.08;29.49;97477.94;5084180;28;20264;-81
2022/03/21 09:38:00;;;;;;;9.70;6.53;;;;;;;13.16;28.65;97475.84;5096083;28;20256;-81
2022/03/21 09:40:29;;;;;;;10.63;6.70;;;;;;;13.18;29.19;97476.44;5087965;28;20224;-81
2022/03/21 09:42:58;;;;;;;8.27;6.27;;;;;;;13.13;28.48;97472.69;5085061;28;20211;-81
2022/03/21 09:45:25;;;;;;;9.17;6.33;;;;;;;13.49;28.96;97464.72;5098444;28;20208;-82
2022/03/21 09:48:12;;;;;;;13.33;6.67;;;;;;;13.69;28.61;97482.75;5087912;28;20193;-82
2022/03/21 09:50:44;;;;;;;8.57;6.53;;;;;;;14.05;29.24;97465.66;5094791;28;20283;-82
2022/03/21 09:53:14;;;;;;;8.90;5.97;;;;;;;14.35;28.38;97456.56;5092691;28;20220;-81
2022/03/21 09:55:42;;;;;;;10.93;6.80;;;;;;;14.63;28.06;97455.22;5088621;28;20208;-81
2022/03/21 09:58:12;;;;;;;12.50;6.80;;;;;;;14.73;31.46;97452.75;5093732;28;20215;-82
2022/03/21 10:00:40;;;;;;;8.50;6.50;;;;;;;14.59;30.62;97446.66;5088532;28;20227;-82
2022/03/21 10:03:07;;;;;;;10.67;7.20;;;;;;;14.53;32.00;97450.31;5088114;28;20204;-82
2022/03/21 10:05:40;;;;;;;12.63;6.57;;;;;;;14.49;32.72;97450.97;5088509;28;20201;-80
2022/03/21 10:08:27;;;;;;;11.73;7.13;;;;;;;14.41;32.34;97441.25;5098017;28;20299;-82
2022/03/21 10:10:59;;;;;;;13.17;7.70;;;;;;;14.50;33.00;97447.22;5086257;28;20192;-82
2022/03/21 10:13:30;;;;;;;12.50;7.13;;;;;;;14.56;33.02;97446.28;5094278;28;20270;-82
2022/03/21 10:16:10;;;;;;;15.17;7.63;;;;;;;14.59;33.09;97441.22;5086960;28;20267;-81
2022/03/21 10:18:38;;;;;;;13.07;7.47;;;;;;;14.81;32.60;97444.28;5083100;28;20256;-81
2022/03/21 10:21:14;;;;;;;10.43;7.50;;;;;;;14.80;33.14;97436.38;5087743;28;20212;-82
2022/03/21 10:23:41;;;;;;;10.60;7.20;;;;;;;15.05;33.08;97439.78;5087959;28;20235;-81
2022/03/21 10:26:26;;;;;;;15.50;7.70;;;;;;;14.75;33.33;97434.31;5088959;28;20295;-82
2022/03/21 10:28:56;;;;;;;10.07;7.07;;;;;;;14.72;33.74;97432.06;5112290;28;20199;-82
2022/03/21 10:31:35;;;;;;;10.07;7.40;;;;;;;14.66;33.76;97432.97;5091789;28;20215;-82
2022/03/21 10:34:04;;;;;;;13.30;7.47;;;;;;;14.66;33.59;97428.38;5095313;28;20210;-82
2022/03/21 10:36:31;;;;;;;11.43;7.70;;;;;;;14.72;33.17;97419.28;5087075;28;20292;-82
2022/03/21 10:39:10;;;;;;;16.90;7.70;;;;;;;14.78;33.68;97428.44;5080287;28;20205;-82
2022/03/21 10:41:38;;;;;;;11.07;8.10;;;;;;;14.72;33.38;97421.19;5099952;28;20231;-81
2022/03/21 10:44:08;;;;;;;11.90;7.27;;;;;;;14.89;32.72;97430.34;5091016;28;20208;-82
2022/03/21 10:46:37;;;;;;;11.57;8.07;;;;;;;14.75;33.07;97418.00;5089755;28;20205;-82
2022/03/21 10:49:09;;;;;;;12.83;7.50;;;;;;;14.84;33.37;97413.06;5096950;28;20227;-80
2022/03/21 10:51:54;;;;;;;10.50;7.27;;;;;;;15.02;33.59;97419.28;5091489;28;20277;-82
2022/03/21 10:54:43;;;;;;;9.30;7.23;;;;;;;14.93;33.11;97417.13;5084357;28;20212;-81
2022/03/21 10:57:30;;;;;;;9.43;6.13;;;;;;;14.72;34.55;97413.03;5091305;28;20235;-82
2022/03/21 11:00:16;;;;;;;10.47;7.63;;;;;;;14.49;33.51;97416.47;5087684;28;20221;-82
2022/03/21 11:02:52;;;;;;;11.93;7.70;;;;;;;14.63;34.35;97406.28;5092094;28;20315;-81
2022/03/21 11:05:20;;;;;;;12.60;6.80;;;;;;;14.77;33.68;97399.59;5080987;28;20613;-82
2022/03/21 11:07:47;;;;;;;9.30;7.23;;;;;;;14.68;33.76;97406.41;5091235;28;20205;-82
2022/03/21 11:10:15;;;;;;;11.30;7.80;;;;;;;14.80;33.40;97399.09;5113031;28;20203;-82
2022/03/21 11:12:43;;;;;;;11.57;7.23;;;;;;;14.73;34.03;97399.19;5108437;28;20207;-81
2022/03/21 11:15:11;;;;;;;15.83;7.63;;;;;;;14.81;33.03;97406.19;5084360;28;20234;-82
2022/03/21 11:17:39;;;;;;;13.00;7.43;;;;;;;14.74;33.04;97402.75;5085608;28;20216;-81
2022/03/21 11:20:08;;;;;;;10.23;6.87;;;;;;;14.82;33.79;97402.44;5084111;28;20243;-82
2022/03/21 11:22:37;;;;;;;11.77;7.57;;;;;;;14.87;33.42;97399.03;5083457;28;20204;-80
2022/03/21 11:25:07;;;;;;;9.43;7.13;;;;;;;14.95;32.66;97391.38;5098664;27;20219;-82
2022/03/21 11:28:20;;;;;;;12.07;7.10;;;;;;;15.33;32.56;97388.22;5087276;28;20204;-82
2022/03/21 11:31:04;;;;;;;11.33;8.03;;;;;;;15.38;31.84;97382.09;5078871;28;20205;-82
2022/03/21 11:33:41;;;;;;;10.20;7.10;;;;;;;15.48;31.86;97383.16;5075966;28;20205;-81
2022/03/21 11:36:10;;;;;;;9.27;6.90;;;;;;;15.57;31.54;97380.94;5075028;28;20296;-82
2022/03/21 11:38:42;;;;;;;10.80;6.87;;;;;;;15.60;31.54;97383.19;5092342;28;20204;-81
2022/03/21 11:41:13;;;;;;;11.07;7.43;;;;;;;15.78;32.37;97380.34;5089466;28;20232;-82
2022/03/21 11:43:41;;;;;;;10.10;7.10;;;;;;;16.02;30.96;97375.69;5103340;27;20259;-83
2022/03/21 11:46:35;;;;;;;10.73;6.87;;;;;;;15.66;31.16;97376.78;5076983;28;20231;-81
2022/03/21 11:49:06;;;;;;;13.23;7.57;;;;;;;15.57;30.13;97375.50;5060707;28;20220;-82
2022/03/21 11:51:38;;;;;;;11.53;7.00;;;;;;;15.59;29.33;97370.63;5084469;28;20197;-83
2022/03/21 11:54:07;;;;;;;9.93;6.20;;;;;;;15.73;29.68;97371.25;5079966;28;20212;-83
2022/03/21 11:56:59;;;;;;;12.60;7.17;;;;;;;16.00;29.87;97363.38;5093155;28;20209;-80
2022/03/21 11:59:52;;;;;;;8.63;6.30;;;;;;;15.76;30.54;97371.56;5077856;28;20204;-82
2022/03/21 12:02:57;;;;;;;11.60;6.90;;;;;;;15.86;29.37;97354.63;5095846;28;20213;-82
2022/03/21 12:05:54;;;;;;;11.73;6.70;;;;;;;15.97;28.43;97358.41;5086135;28;20201;-82
2022/03/21 12:08:54;;;;;;;9.70;6.60;;;;;;;16.19;28.51;97351.25;5080043;28;20220;-82
2022/03/21 12:11:59;;;;;;;12.33;6.53;;;;;;;16.48;28.30;97352.09;5073611;28;20205;-82
2022/03/21 12:14:29;;;;;;;11.10;6.03;;;;;;;16.73;27.25;97341.72;5076030;28;20224;-83
2022/03/21 12:17:36;;;;;;;8.93;6.10;;;;;;;16.76;27.32;97343.13;5077783;28;20239;-82
2022/03/21 12:20:15;;;;;;;10.60;6.17;;;;;;;16.64;27.78;97340.44;5078326;28;20219;-82
2022/03/21 12:22:47;;;;;;;10.80;6.47;;;;;;;16.81;27.10;97335.84;5087869;27;20212;-82
2022/03/21 12:25:17;;;;;;;13.50;6.83;;;;;;;16.96;27.69;97332.56;5077322;28;20225;-82
2022/03/21 12:27:46;;;;;;;7.67;6.43;;;;;;;17.02;27.35;97328.81;5085865;28;20203;-82
2022/03/21 12:30:34;;;;;;;11.77;7.23;;;;;;;16.95;29.16;97330.91;5085365;28;20220;-82
2022/03/21 12:33:02;;;;;;;11.80;7.07;;;;;;;17.14;28.64;97318.69;5088005;28;20231;-82
2022/03/21 12:35:58;;;;;;;12.60;7.07;;;;;;;17.23;28.53;97319.91;5072735;28;20205;-82
2022/03/21 12:38:33;;;;;;;9.10;7.17;;;;;;;17.26;28.44;97308.50;5077724;28;20216;-82
2022/03/21 12:41:03;;;;;;;10.97;7.27;;;;;;;17.18;29.75;97308.91;5084314;28;20309;-81
2022/03/21 12:43:32;;;;;;;12.33;7.30;;;;;;;17.09;29.69;97304.97;5080265;28;20308;-82
2022/03/21 12:46:11;;;;;;;11.00;6.83;;;;;;;16.72;29.89;97306.50;5085884;28;20208;-82
2022/03/21 12:48:40;;;;;;;12.77;6.80;;;;;;;16.71;29.62;97296.66;5092452;28;20248;-81
2022/03/21 12:51:09;;;;;;;9.10;7.30;;;;;;;16.80;29.88;97296.00;5091429;28;20200;-81
2022/03/21 12:53:40;;;;;;;10.60;7.07;;;;;;;16.64;29.24;97308.56;5086108;28;20276;-81
2022/03/21 12:56:09;;;;;;;11.60;7.77;;;;;;;16.30;29.21;97298.59;5096500;27;20211;-81
2022/03/21 12:58:38;;;;;;;11.30;7.33;;;;;;;16.47;29.90;97302.19;5100516;28;20211;-81
2022/03/21 13:01:06;;;;;;;10.40;7.80;;;;;;;16.36;30.43;97305.81;5089783;28;20228;-81
2022/03/21 13:03:33;;;;;;;9.50;7.03;;;;;;;16.40;30.59;97304.25;5087359;27;20201;-82
2022/03/21 13:11:45;;;;;;;10.13;7.93;;;;;;;16.68;30.17;97305.31;5066555;28;20310;-81
2022/03/21 13:14:14;;;;;;;12.10;8.40;;;;;;;16.36;30.93;97311.25;5075493;28;20208;-81
2022/03/21 13:16:49;;;;;;;12.90;8.53;;;;;;;16.72;30.72;97314.69;5086504;28;20221;-82
2022/03/21 13:19:19;;;;;;;12.13;7.30;;;;;;;16.83;24.41;97300.16;5083015;28;20244;-82
2022/03/21 13:21:47;;;;;;;12.50;7.00;;;;;;;17.08;22.88;97303.31;5078968;28;20329;-81